Temp: 14.6°C   Baro: 995.6mb
  Wind: 22.0mph   Dir: SSW (213°)
  Rain: 0.3mm (2.1mm/hr)
  Solar: 86W/m2  Hum: 88%
 
Bath Spa Weather Station Historical Data
Daily Summary for July 04, 2020 Units:  Both    English   Metric
Daily Weekly Monthly Yearly Custom
  High: Low: Average:
Temperature: 64.8 °F /  18.2 °C 59.2 °F /  15.1 °C 61.8 °F /  16.6 °C
Dew Point: 60.9 °F /  16.1 °C 55.9 °F /  13.3 °C 58.6 °F /  14.8 °C
Humidity: 93% 84% 89%
Wind Speed: 10.8mph /  17.4km/h - 6.3mph /  10.1km/h
Wind Gust: 19mph /  30.6km/h - -
Wind- - WSW
Pressure: 29.89 in /  1012.1 hPa 29.82 in /  1009.7 hPa -
Precipitation: 0.04 in /  1.02 mm    
Historical Graphs
 
 
Tabular Data for July 04, 2020
Time Temperature Dew Point Pressure Wind Wind Speed Wind Gust Humidity Rainfall Rate (Hourly) solar
00:04 59.2 °F /  15.1 °C 55.9 °F /  13.3 °C 29.89in /  1012.1hPa SW 5.7mph /  9.2km/h 10mph /  16.1km/h 89% 0.00in /  0mm 0 W/m2
00:09 59.2 °F /  15.1 °C 56.1 °F /  13.4 °C 29.89in /  1012.1hPa WSW 6.5mph /  10.5km/h 10mph /  16.1km/h 89.6% 0.00in /  0mm 0 W/m2
00:14 59.2 °F /  15.1 °C 56.3 °F /  13.5 °C 29.89in /  1012.1hPa SW 5.6mph /  9km/h 12mph /  19.3km/h 90% 0.00in /  0mm 0 W/m2
00:19 59.2 °F /  15.1 °C 56.3 °F /  13.5 °C 29.89in /  1012.1hPa SW 4.1mph /  6.6km/h 14mph /  22.5km/h 90% 0.00in /  0mm 0 W/m2
00:24 59.2 °F /  15.1 °C 56.3 °F /  13.5 °C 29.88in /  1011.7hPa SW 4.8mph /  7.7km/h 10mph /  16.1km/h 90% 0.00in /  0mm 0 W/m2
00:29 59.2 °F /  15.1 °C 56.3 °F /  13.5 °C 29.88in /  1011.7hPa SW 6mph /  9.7km/h 10mph /  16.1km/h 90% 0.00in /  0mm 0 W/m2
00:34 59.2 °F /  15.1 °C 56.3 °F /  13.5 °C 29.88in /  1011.7hPa SW 5.6mph /  9km/h 11mph /  17.7km/h 90% 0.00in /  0mm 0 W/m2
00:39 59.2 °F /  15.1 °C 56.4 °F /  13.6 °C 29.88in /  1011.7hPa SW 5.5mph /  8.9km/h 11mph /  17.7km/h 90.4% 0.00in /  0mm 0 W/m2
00:44 59.2 °F /  15.1 °C 56.5 °F /  13.6 °C 29.88in /  1011.7hPa SW 3.3mph /  5.3km/h 8mph /  12.9km/h 91% 0.00in /  0mm 0 W/m2
00:49 59.2 °F /  15.1 °C 56.5 °F /  13.6 °C 29.88in /  1011.7hPa SSW 4mph /  6.4km/h 12mph /  19.3km/h 91% 0.00in /  0mm 0 W/m2
00:54 59.2 °F /  15.1 °C 56.5 °F /  13.6 °C 29.87in /  1011.4hPa SW 6.7mph /  10.8km/h 12mph /  19.3km/h 91% 0.00in /  0mm 0 W/m2
00:59 59.3 °F /  15.2 °C 56.6 °F /  13.7 °C 29.87in /  1011.4hPa SW 7.6mph /  12.2km/h 15mph /  24.1km/h 91% 0.00in /  0mm 0 W/m2
01:04 59.3 °F /  15.2 °C 56.6 °F /  13.7 °C 29.87in /  1011.4hPa SW 6.6mph /  10.6km/h 12mph /  19.3km/h 91% 0.00in /  0mm 0 W/m2
01:09 59.4 °F /  15.2 °C 56.7 °F /  13.7 °C 29.86in /  1011.1hPa SW 7mph /  11.3km/h 13mph /  20.9km/h 91% 0.00in /  0mm 0 W/m2
01:14 59.4 °F /  15.2 °C 56.7 °F /  13.7 °C 29.86in /  1011.1hPa SW 2.8mph /  4.5km/h 12mph /  19.3km/h 91% 0.00in /  0mm 0 W/m2
01:19 59.4 °F /  15.2 °C 56.7 °F /  13.7 °C 29.86in /  1011.1hPa WSW 6.2mph /  10km/h 13mph /  20.9km/h 91% 0.00in /  0mm 0 W/m2
01:24 59.4 °F /  15.2 °C 56.7 °F /  13.7 °C 29.86in /  1011.1hPa West 6.4mph /  10.3km/h 13mph /  20.9km/h 91% 0.00in /  0mm 0 W/m2
01:29 59.4 °F /  15.2 °C 56.7 °F /  13.7 °C 29.86in /  1011.1hPa SW 5.3mph /  8.5km/h 11mph /  17.7km/h 91% 0.00in /  0mm 0 W/m2
01:34 59.4 °F /  15.2 °C 56.7 °F /  13.7 °C 29.86in /  1011.1hPa SW 5.3mph /  8.5km/h 9mph /  14.5km/h 91% 0.00in /  0mm 0 W/m2
01:39 59.5 °F /  15.3 °C 56.9 °F /  13.8 °C 29.86in /  1011.1hPa SW 5.7mph /  9.2km/h 11mph /  17.7km/h 91.2% 0.00in /  0mm 0 W/m2
01:44 59.4 °F /  15.2 °C 56.9 °F /  13.8 °C 29.86in /  1011.1hPa WSW 6.7mph /  10.8km/h 11mph /  17.7km/h 91.6% 0.01in /  0.25mm 0 W/m2
01:49 59.4 °F /  15.2 °C 57 °F /  13.9 °C 29.86in /  1011.1hPa WSW 5.2mph /  8.4km/h 10mph /  16.1km/h 92% 0.02in /  0.51mm 0 W/m2
01:54 59.5 °F /  15.3 °C 57.1 °F /  13.9 °C 29.86in /  1011.1hPa West 3.4mph /  5.5km/h 10mph /  16.1km/h 92% 0.02in /  0.51mm 0 W/m2
01:59 59.4 °F /  15.2 °C 57 °F /  13.9 °C 29.85in /  1010.7hPa WSW 7.3mph /  11.7km/h 12mph /  19.3km/h 92% 0.02in /  0.51mm 0 W/m2
02:04 59.5 °F /  15.3 °C 57.2 °F /  14 °C 29.85in /  1010.7hPa WSW 5.8mph /  9.3km/h 12mph /  19.3km/h 92% 0.02in /  0.51mm 0 W/m2
02:09 59.5 °F /  15.3 °C 57.2 °F /  14 °C 29.85in /  1010.7hPa SW 6.2mph /  10km/h 15mph /  24.1km/h 92% 0.02in /  0.51mm 0 W/m2
02:14 59.5 °F /  15.3 °C 57.2 °F /  14 °C 29.85in /  1010.7hPa WSW 8.4mph /  13.5km/h 12mph /  19.3km/h 92% 0.02in /  0.51mm 0 W/m2
02:19 59.5 °F /  15.3 °C 57.2 °F /  14 °C 29.85in /  1010.7hPa West 6.6mph /  10.6km/h 11mph /  17.7km/h 92% 0.02in /  0.51mm 0 W/m2
02:24 59.5 °F /  15.3 °C 57.2 °F /  14 °C 29.85in /  1010.7hPa WSW 6.4mph /  10.3km/h 15mph /  24.1km/h 92% 0.02in /  0.51mm 0 W/m2
02:29 59.5 °F /  15.3 °C 57.2 °F /  14 °C 29.85in /  1010.7hPa SW 8.5mph /  13.7km/h 15mph /  24.1km/h 92% 0.02in /  0.51mm 0 W/m2
02:34 59.6 °F /  15.3 °C 57.1 °F /  13.9 °C 29.84in /  1010.4hPa WSW 6mph /  9.7km/h 15mph /  24.1km/h 91.4% 0.02in /  0.51mm 0 W/m2
02:39 59.7 °F /  15.4 °C 57 °F /  13.9 °C 29.84in /  1010.4hPa WSW 6.8mph /  10.9km/h 11mph /  17.7km/h 91% 0.02in /  0.51mm 0 W/m2
02:44 59.7 °F /  15.4 °C 57 °F /  13.9 °C 29.84in /  1010.4hPa SW 6.2mph /  10km/h 11mph /  17.7km/h 91% 0.01in /  0.25mm 0 W/m2
02:49 59.7 °F /  15.4 °C 57 °F /  13.9 °C 29.84in /  1010.4hPa SW 8mph /  12.9km/h 13mph /  20.9km/h 91% 0.00in /  0mm 0 W/m2
02:54 59.7 °F /  15.4 °C 57 °F /  13.9 °C 29.84in /  1010.4hPa WSW 6.8mph /  10.9km/h 14mph /  22.5km/h 91% 0.00in /  0mm 0 W/m2
02:59 59.7 °F /  15.4 °C 57 °F /  13.9 °C 29.84in /  1010.4hPa SW 5.4mph /  8.7km/h 12mph /  19.3km/h 91% 0.00in /  0mm 0 W/m2
03:04 59.8 °F /  15.4 °C 57.1 °F /  13.9 °C 29.84in /  1010.4hPa SW 8.2mph /  13.2km/h 12mph /  19.3km/h 91% 0.00in /  0mm 0 W/m2
03:14 59.9 °F /  15.5 °C 57.2 °F /  14 °C 29.84in /  1010.4hPa WSW 4.9mph /  7.9km/h 14mph /  22.5km/h 91% 0.00in /  0mm 0 W/m2
03:19 60 °F /  15.6 °C 57.3 °F /  14.1 °C 29.83in /  1010hPa SW 6mph /  9.7km/h 14mph /  22.5km/h 91% 0.00in /  0mm 0 W/m2
03:24 60.1 °F /  15.6 °C 57.4 °F /  14.1 °C 29.83in /  1010hPa WSW 5.1mph /  8.2km/h 12mph /  19.3km/h 91% 0.00in /  0mm 0 W/m2
03:29 60.1 °F /  15.6 °C 57.4 °F /  14.1 °C 29.83in /  1010hPa WSW 7.4mph /  11.9km/h 13mph /  20.9km/h 91% 0.00in /  0mm 0 W/m2
03:34 60.1 °F /  15.6 °C 57.4 °F /  14.1 °C 29.83in /  1010hPa SW 8.5mph /  13.7km/h 14mph /  22.5km/h 91% 0.00in /  0mm 0 W/m2
03:39 60.1 °F /  15.6 °C 57.4 °F /  14.1 °C 29.83in /  1010hPa SW 8.7mph /  14km/h 14mph /  22.5km/h 91% 0.00in /  0mm 0 W/m2
03:44 60.3 °F /  15.7 °C 57.6 °F /  14.2 °C 29.83in /  1010hPa WSW 6.6mph /  10.6km/h 14mph /  22.5km/h 91% 0.00in /  0mm 0 W/m2
03:49 60.3 °F /  15.7 °C 57.5 °F /  14.2 °C 29.83in /  1010hPa SW 9.6mph /  15.4km/h 17mph /  27.4km/h 90.6% 0.00in /  0mm 0 W/m2
03:54 60.3 °F /  15.7 °C 57.4 °F /  14.1 °C 29.83in /  1010hPa WSW 9.4mph /  15.1km/h 15mph /  24.1km/h 90% 0.00in /  0mm 0 W/m2
03:59 60.3 °F /  15.7 °C 57.4 °F /  14.1 °C 29.83in /  1010hPa WSW 6.2mph /  10km/h 13mph /  20.9km/h 90% 0.00in /  0mm 0 W/m2
04:04 60.3 °F /  15.7 °C 57.4 °F /  14.1 °C 29.83in /  1010hPa SW 6.8mph /  10.9km/h 14mph /  22.5km/h 90% 0.00in /  0mm 0 W/m2
04:09 60.3 °F /  15.7 °C 57.4 °F /  14.1 °C 29.83in /  1010hPa WSW 5.8mph /  9.3km/h 15mph /  24.1km/h 90% 0.00in /  0mm 0 W/m2
04:14 60.4 °F /  15.8 °C 57.6 °F /  14.2 °C 29.83in /  1010hPa SW 6.7mph /  10.8km/h 13mph /  20.9km/h 90% 0.00in /  0mm 0 W/m2
04:19 60.4 °F /  15.8 °C 57.6 °F /  14.2 °C 29.83in /  1010hPa SW 7mph /  11.3km/h 11mph /  17.7km/h 90% 0.00in /  0mm 0 W/m2
04:24 60.4 °F /  15.8 °C 57.6 °F /  14.2 °C 29.83in /  1010hPa WSW 5.8mph /  9.3km/h 12mph /  19.3km/h 90% 0.00in /  0mm 0 W/m2
04:29 60.4 °F /  15.8 °C 57.6 °F /  14.2 °C 29.83in /  1010hPa WSW 5.6mph /  9km/h 12mph /  19.3km/h 90% 0.00in /  0mm 0 W/m2
04:34 60.4 °F /  15.8 °C 57.6 °F /  14.2 °C 29.83in /  1010hPa West 6mph /  9.7km/h 13mph /  20.9km/h 90% 0.00in /  0mm 0 W/m2
04:39 60.4 °F /  15.8 °C 57.6 °F /  14.2 °C 29.83in /  1010hPa SW 6.6mph /  10.6km/h 12mph /  19.3km/h 90% 0.00in /  0mm 0 W/m2
04:44 60.4 °F /  15.8 °C 57.6 °F /  14.2 °C 29.83in /  1010hPa WSW 4.2mph /  6.8km/h 13mph /  20.9km/h 90% 0.00in /  0mm 0 W/m2
04:49 60.5 °F /  15.8 °C 57.7 °F /  14.3 °C 29.83in /  1010hPa SW 3.6mph /  5.8km/h 13mph /  20.9km/h 90% 0.00in /  0mm 0 W/m2
04:54 60.5 °F /  15.8 °C 57.6 °F /  14.2 °C 29.83in /  1010hPa WSW 5.8mph /  9.3km/h 10mph /  16.1km/h 90% 0.00in /  0mm 0 W/m2
04:59 60.6 °F /  15.9 °C 57.7 °F /  14.3 °C 29.83in /  1010hPa WSW 5.7mph /  9.2km/h 11mph /  17.7km/h 90% 0.00in /  0mm 0 W/m2
05:04 60.6 °F /  15.9 °C 57.7 °F /  14.3 °C 29.83in /  1010hPa SW 5.2mph /  8.4km/h 12mph /  19.3km/h 90% 0.00in /  0mm 0 W/m2
05:09 60.6 °F /  15.9 °C 57.7 °F /  14.3 °C 29.82in /  1009.7hPa WSW 7.6mph /  12.2km/h 14mph /  22.5km/h 90% 0.00in /  0mm 0 W/m2
05:14 60.6 °F /  15.9 °C 57.7 °F /  14.3 °C 29.82in /  1009.7hPa WSW 6.4mph /  10.3km/h 12mph /  19.3km/h 90% 0.00in /  0mm 0 W/m2
05:19 60.6 °F /  15.9 °C 57.7 °F /  14.3 °C 29.82in /  1009.7hPa SW 7.4mph /  11.9km/h 12mph /  19.3km/h 90% 0.00in /  0mm 0 W/m2
05:24 60.6 °F /  15.9 °C 57.7 °F /  14.3 °C 29.82in /  1009.7hPa WSW 6.8mph /  10.9km/h 13mph /  20.9km/h 90% 0.00in /  0mm 0 W/m2
05:29 60.6 °F /  15.9 °C 57.7 °F /  14.3 °C 29.83in /  1010hPa SW 10mph /  16.1km/h 14mph /  22.5km/h 90% 0.00in /  0mm 0 W/m2
05:34 60.6 °F /  15.9 °C 57.7 °F /  14.3 °C 29.83in /  1010hPa WSW 4.8mph /  7.7km/h 11mph /  17.7km/h 90% 0.00in /  0mm 5 W/m2
05:39 60.5 °F /  15.8 °C 57.6 °F /  14.2 °C 29.83in /  1010hPa SW 5.5mph /  8.9km/h 10mph /  16.1km/h 90% 0.00in /  0mm 11 W/m2
05:44 60.4 °F /  15.8 °C 57.6 °F /  14.2 °C 29.83in /  1010hPa West 4.7mph /  7.6km/h 13mph /  20.9km/h 90.2% 0.00in /  0mm 12 W/m2
05:49 60.4 °F /  15.8 °C 57.7 °F /  14.3 °C 29.82in /  1009.7hPa WSW 7.2mph /  11.6km/h 13mph /  20.9km/h 90.6% 0.00in /  0mm 12 W/m2
05:54 60.4 °F /  15.8 °C 57.7 °F /  14.3 °C 29.82in /  1009.7hPa SW 5.8mph /  9.3km/h 12mph /  19.3km/h 90.6% 0.00in /  0mm 19 W/m2
05:59 60.4 °F /  15.8 °C 57.7 °F /  14.3 °C 29.82in /  1009.7hPa WSW 5.4mph /  8.7km/h 9mph /  14.5km/h 91% 0.00in /  0mm 30 W/m2
06:04 60.4 °F /  15.8 °C 57.7 °F /  14.3 °C 29.82in /  1009.7hPa SW 7.4mph /  11.9km/h 13mph /  20.9km/h 91% 0.00in /  0mm 28 W/m2
06:09 60.4 °F /  15.8 °C 57.7 °F /  14.3 °C 29.83in /  1010hPa WSW 6.3mph /  10.1km/h 11mph /  17.7km/h 91% 0.00in /  0mm 19 W/m2
06:14 60.4 °F /  15.8 °C 57.7 °F /  14.3 °C 29.83in /  1010hPa WSW 5.4mph /  8.7km/h 12mph /  19.3km/h 91% 0.00in /  0mm 25 W/m2
06:19 60.4 °F /  15.8 °C 57.7 °F /  14.3 °C 29.83in /  1010hPa WSW 5.5mph /  8.9km/h 13mph /  20.9km/h 91% 0.00in /  0mm 23 W/m2
06:24 60.4 °F /  15.8 °C 57.7 °F /  14.3 °C 29.83in /  1010hPa SW 6.6mph /  10.6km/h 13mph /  20.9km/h 91% 0.00in /  0mm 28 W/m2
06:29 60.4 °F /  15.8 °C 57.7 °F /  14.3 °C 29.83in /  1010hPa WSW 6.6mph /  10.6km/h 13mph /  20.9km/h 91% 0.00in /  0mm 26 W/m2
06:34 60.4 °F /  15.8 °C 57.7 °F /  14.3 °C 29.83in /  1010hPa WSW 6.1mph /  9.8km/h 11mph /  17.7km/h 91% 0.00in /  0mm 26 W/m2
06:39 60.4 °F /  15.8 °C 57.7 °F /  14.3 °C 29.84in /  1010.4hPa WSW 5.2mph /  8.4km/h 10mph /  16.1km/h 91% 0.00in /  0mm 26 W/m2
06:44 60.4 °F /  15.8 °C 57.7 °F /  14.3 °C 29.84in /  1010.4hPa West 4.3mph /  6.9km/h 9mph /  14.5km/h 91% 0.00in /  0mm 32 W/m2
06:49 60.3 °F /  15.7 °C 57.9 °F /  14.4 °C 29.83in /  1010hPa WSW 3.7mph /  6km/h 8mph /  12.9km/h 92% 0.00in /  0mm 33 W/m2
06:54 60.3 °F /  15.7 °C 58 °F /  14.4 °C 29.83in /  1010hPa West 4.8mph /  7.7km/h 11mph /  17.7km/h 92% 0.00in /  0mm 51 W/m2
06:59 60.3 °F /  15.7 °C 57.9 °F /  14.4 °C 29.83in /  1010hPa WSW 3.6mph /  5.8km/h 9mph /  14.5km/h 92% 0.00in /  0mm 44 W/m2
07:04 60.4 °F /  15.8 °C 58.1 °F /  14.5 °C 29.83in /  1010hPa WSW 6.2mph /  10km/h 9mph /  14.5km/h 92% 0.00in /  0mm 37 W/m2
07:09 60.4 °F /  15.8 °C 58.1 °F /  14.5 °C 29.83in /  1010hPa West 3.5mph /  5.6km/h 9mph /  14.5km/h 92% 0.00in /  0mm 37 W/m2
07:14 60.4 °F /  15.8 °C 58.1 °F /  14.5 °C 29.83in /  1010hPa West 6mph /  9.7km/h 9mph /  14.5km/h 92% 0.00in /  0mm 42 W/m2
07:19 60.4 °F /  15.8 °C 58.1 °F /  14.5 °C 29.84in /  1010.4hPa West 7.6mph /  12.2km/h 13mph /  20.9km/h 92% 0.00in /  0mm 49 W/m2
07:24 60.4 °F /  15.8 °C 58.1 °F /  14.5 °C 29.83in /  1010hPa West 4.2mph /  6.8km/h 10mph /  16.1km/h 92% 0.00in /  0mm 54 W/m2
07:29 60.4 °F /  15.8 °C 58.1 °F /  14.5 °C 29.83in /  1010hPa WNW 4mph /  6.4km/h 10mph /  16.1km/h 92% 0.00in /  0mm 60 W/m2
07:34 60.4 °F /  15.8 °C 58.1 °F /  14.5 °C 29.83in /  1010hPa West 4.9mph /  7.9km/h 12mph /  19.3km/h 92% 0.00in /  0mm 91 W/m2
07:39 60.4 °F /  15.8 °C 58.1 °F /  14.5 °C 29.83in /  1010hPa West 5.1mph /  8.2km/h 9mph /  14.5km/h 92% 0.00in /  0mm 83 W/m2
07:44 60.6 °F /  15.9 °C 58.3 °F /  14.6 °C 29.83in /  1010hPa West 5.3mph /  8.5km/h 8mph /  12.9km/h 92% 0.00in /  0mm 58 W/m2
07:49 60.6 °F /  15.9 °C 58.3 °F /  14.6 °C 29.83in /  1010hPa WSW 7.2mph /  11.6km/h 14mph /  22.5km/h 92% 0.00in /  0mm 79 W/m2
07:54 60.7 °F /  15.9 °C 58.4 °F /  14.7 °C 29.83in /  1010hPa West 5.3mph /  8.5km/h 13mph /  20.9km/h 92% 0.00in /  0mm 111 W/m2
07:59 60.8 °F /  16 °C 58.5 °F /  14.7 °C 29.83in /  1010hPa WSW 7.5mph /  12.1km/h 14mph /  22.5km/h 92% 0.00in /  0mm 88 W/m2
08:04 61 °F /  16.1 °C 58.6 °F /  14.8 °C 29.84in /  1010.4hPa West 5.3mph /  8.5km/h 10mph /  16.1km/h 92% 0.00in /  0mm 70 W/m2
08:09 61.2 °F /  16.2 °C 58.6 °F /  14.8 °C 29.84in /  1010.4hPa WSW 5.7mph /  9.2km/h 9mph /  14.5km/h 91.6% 0.00in /  0mm 79 W/m2
08:14 61.2 °F /  16.2 °C 58.5 °F /  14.7 °C 29.84in /  1010.4hPa WSW 6.3mph /  10.1km/h 13mph /  20.9km/h 91% 0.00in /  0mm 100 W/m2
08:19 61.3 °F /  16.3 °C 58.6 °F /  14.8 °C 29.84in /  1010.4hPa West 5.5mph /  8.9km/h 13mph /  20.9km/h 91% 0.00in /  0mm 169 W/m2
08:24 61.4 °F /  16.3 °C 58.7 °F /  14.8 °C 29.84in /  1010.4hPa WSW 4.8mph /  7.7km/h 12mph /  19.3km/h 91% 0.00in /  0mm 167 W/m2
08:29 61.5 °F /  16.4 °C 58.7 °F /  14.8 °C 29.84in /  1010.4hPa WSW 5.6mph /  9km/h 11mph /  17.7km/h 90.8% 0.00in /  0mm 70 W/m2
08:34 61.3 °F /  16.3 °C 58.5 °F /  14.7 °C 29.83in /  1010hPa WSW 8.7mph /  14km/h 12mph /  19.3km/h 90% 0.00in /  0mm 60 W/m2
08:39 61.3 °F /  16.3 °C 58.5 °F /  14.7 °C 29.84in /  1010.4hPa WSW 5.4mph /  8.7km/h 11mph /  17.7km/h 90% 0.00in /  0mm 56 W/m2
08:44 61.4 °F /  16.3 °C 58.5 °F /  14.7 °C 29.84in /  1010.4hPa WSW 7mph /  11.3km/h 15mph /  24.1km/h 90% 0.00in /  0mm 95 W/m2
08:49 61.5 °F /  16.4 °C 58.4 °F /  14.7 °C 29.84in /  1010.4hPa West 7.4mph /  11.9km/h 12mph /  19.3km/h 89.4% 0.00in /  0mm 77 W/m2
08:54 61.7 °F /  16.5 °C 58.5 °F /  14.7 °C 29.83in /  1010hPa WSW 8.8mph /  14.2km/h 14mph /  22.5km/h 89% 0.00in /  0mm 90 W/m2
08:59 61.9 °F /  16.6 °C 58.6 °F /  14.8 °C 29.83in /  1010hPa WSW 5.7mph /  9.2km/h 11mph /  17.7km/h 89% 0.00in /  0mm 90 W/m2
09:04 61.9 °F /  16.6 °C 58.6 °F /  14.8 °C 29.83in /  1010hPa WSW 8.4mph /  13.5km/h 15mph /  24.1km/h 88.8% 0.00in /  0mm 102 W/m2
09:09 62.1 °F /  16.7 °C 58.5 °F /  14.7 °C 29.83in /  1010hPa WSW 6.2mph /  10km/h 15mph /  24.1km/h 88% 0.00in /  0mm 114 W/m2
09:14 62.1 °F /  16.7 °C 58.5 °F /  14.7 °C 29.83in /  1010hPa SW 7.8mph /  12.6km/h 11mph /  17.7km/h 88% 0.00in /  0mm 132 W/m2
09:19 62.2 °F /  16.8 °C 58.5 °F /  14.7 °C 29.83in /  1010hPa WSW 8.6mph /  13.8km/h 14mph /  22.5km/h 87.8% 0.00in /  0mm 158 W/m2
09:24 62.3 °F /  16.8 °C 58.6 °F /  14.8 °C 29.83in /  1010hPa SW 4.8mph /  7.7km/h 11mph /  17.7km/h 87.6% 0.00in /  0mm 149 W/m2
09:29 62.4 °F /  16.9 °C 58.5 °F /  14.7 °C 29.83in /  1010hPa WSW 7.8mph /  12.6km/h 12mph /  19.3km/h 87% 0.00in /  0mm 118 W/m2
09:34 62.4 °F /  16.9 °C 58.5 °F /  14.7 °C 29.83in /  1010hPa WSW 5.3mph /  8.5km/h 13mph /  20.9km/h 87% 0.00in /  0mm 155 W/m2
09:39 62.5 °F /  16.9 °C 58.5 °F /  14.7 °C 29.83in /  1010hPa West 8mph /  12.9km/h 13mph /  20.9km/h 87% 0.00in /  0mm 174 W/m2
09:44 62.7 °F /  17.1 °C 58.4 °F /  14.7 °C 29.83in /  1010hPa WSW 7mph /  11.3km/h 14mph /  22.5km/h 86% 0.00in /  0mm 185 W/m2
09:49 62.9 °F /  17.2 °C 58.8 °F /  14.9 °C 29.83in /  1010hPa West 7.4mph /  11.9km/h 15mph /  24.1km/h 86.6% 0.00in /  0mm 178 W/m2
09:54 62.9 °F /  17.2 °C 58.6 °F /  14.8 °C 29.83in /  1010hPa WSW 9.2mph /  14.8km/h 18mph /  29km/h 86% 0.00in /  0mm 192 W/m2
09:59 62.8 °F /  17.1 °C 58.5 °F /  14.7 °C 29.83in /  1010hPa WSW 10.4mph /  16.7km/h 18mph /  29km/h 86% 0.00in /  0mm 179 W/m2
10:04 62.8 °F /  17.1 °C 58.5 °F /  14.7 °C 29.83in /  1010hPa WSW 7.9mph /  12.7km/h 14mph /  22.5km/h 86% 0.00in /  0mm 121 W/m2
10:09 62.8 °F /  17.1 °C 58.5 °F /  14.7 °C 29.83in /  1010hPa West 7.1mph /  11.4km/h 16mph /  25.7km/h 86% 0.00in /  0mm 153 W/m2
10:14 62.8 °F /  17.1 °C 58.5 °F /  14.7 °C 29.84in /  1010.4hPa West 7.6mph /  12.2km/h 13mph /  20.9km/h 86% 0.00in /  0mm 141 W/m2
10:19 62.8 °F /  17.1 °C 58.5 °F /  14.7 °C 29.84in /  1010.4hPa WSW 9.2mph /  14.8km/h 17mph /  27.4km/h 86% 0.00in /  0mm 95 W/m2
10:24 62.8 °F /  17.1 °C 58.5 °F /  14.7 °C 29.84in /  1010.4hPa WSW 7.4mph /  11.9km/h 15mph /  24.1km/h 86% 0.00in /  0mm 176 W/m2
10:29 63 °F /  17.2 °C 58.6 °F /  14.8 °C 29.84in /  1010.4hPa West 6.4mph /  10.3km/h 15mph /  24.1km/h 86% 0.00in /  0mm 128 W/m2
10:34 63 °F /  17.2 °C 58.6 °F /  14.8 °C 29.84in /  1010.4hPa SW 5.7mph /  9.2km/h 10mph /  16.1km/h 86% 0.00in /  0mm 130 W/m2
10:39 63 °F /  17.2 °C 58.6 °F /  14.8 °C 29.84in /  1010.4hPa WSW 8.6mph /  13.8km/h 14mph /  22.5km/h 86% 0.00in /  0mm 151 W/m2
10:44 63 °F /  17.2 °C 58.6 °F /  14.8 °C 29.84in /  1010.4hPa West 6.4mph /  10.3km/h 13mph /  20.9km/h 85.8% 0.00in /  0mm 149 W/m2
10:49 63.1 °F /  17.3 °C 58.6 °F /  14.8 °C 29.84in /  1010.4hPa West 7mph /  11.3km/h 15mph /  24.1km/h 85% 0.00in /  0mm 156 W/m2
10:54 63.1 °F /  17.3 °C 58.6 °F /  14.8 °C 29.84in /  1010.4hPa WSW 9.1mph /  14.6km/h 16mph /  25.7km/h 85% 0.00in /  0mm 109 W/m2
10:59 63.1 °F /  17.3 °C 58.6 °F /  14.8 °C 29.84in /  1010.4hPa WSW 8.6mph /  13.8km/h 16mph /  25.7km/h 85% 0.00in /  0mm 127 W/m2
11:04 63.1 °F /  17.3 °C 58.6 °F /  14.8 °C 29.84in /  1010.4hPa West 6.3mph /  10.1km/h 16mph /  25.7km/h 85% 0.00in /  0mm 190 W/m2
11:09 63.2 °F /  17.3 °C 58.7 °F /  14.8 °C 29.83in /  1010hPa West 5.3mph /  8.5km/h 12mph /  19.3km/h 85% 0.00in /  0mm 192 W/m2
11:14 63.3 °F /  17.4 °C 58.8 °F /  14.9 °C 29.83in /  1010hPa WSW 8.2mph /  13.2km/h 13mph /  20.9km/h 85% 0.00in /  0mm 181 W/m2
11:19 63.3 °F /  17.4 °C 58.8 °F /  14.9 °C 29.84in /  1010.4hPa WSW 7.5mph /  12.1km/h 11mph /  17.7km/h 85% 0.00in /  0mm 151 W/m2
11:24 63.4 °F /  17.4 °C 58.8 °F /  14.9 °C 29.84in /  1010.4hPa WSW 6.1mph /  9.8km/h 12mph /  19.3km/h 85% 0.00in /  0mm 174 W/m2
11:29 63.4 °F /  17.4 °C 58.8 °F /  14.9 °C 29.84in /  1010.4hPa SW 7.2mph /  11.6km/h 14mph /  22.5km/h 85% 0.00in /  0mm 167 W/m2
11:34 63.5 °F /  17.5 °C 58.8 °F /  14.9 °C 29.83in /  1010hPa SW 6.6mph /  10.6km/h 13mph /  20.9km/h 85% 0.00in /  0mm 188 W/m2
11:39 63.7 °F /  17.6 °C 59 °F /  15 °C 29.83in /  1010hPa WSW 5.9mph /  9.5km/h 11mph /  17.7km/h 85% 0.00in /  0mm 227 W/m2
11:44 63.8 °F /  17.7 °C 59.1 °F /  15.1 °C 29.83in /  1010hPa WSW 6.1mph /  9.8km/h 11mph /  17.7km/h 85% 0.00in /  0mm 223 W/m2
11:49 63.9 °F /  17.7 °C 59.1 °F /  15.1 °C 29.83in /  1010hPa WSW 9.3mph /  15km/h 11mph /  17.7km/h 84.5% 0.00in /  0mm 188 W/m2
11:54 64 °F /  17.8 °C 59.2 °F /  15.1 °C 29.83in /  1010hPa WSW 7.4mph /  11.9km/h 12mph /  19.3km/h 84% 0.00in /  0mm 206 W/m2
11:59 64 °F /  17.8 °C 59.2 °F /  15.1 °C 29.83in /  1010hPa WSW 5.2mph /  8.4km/h 14mph /  22.5km/h 84% 0.00in /  0mm 202 W/m2
12:04 64.2 °F /  17.9 °C 59.4 °F /  15.2 °C 29.83in /  1010hPa WSW 5.9mph /  9.5km/h 15mph /  24.1km/h 84% 0.00in /  0mm 192 W/m2
12:09 64.2 °F /  17.9 °C 59.4 °F /  15.2 °C 29.83in /  1010hPa West 7.2mph /  11.6km/h 15mph /  24.1km/h 84% 0.00in /  0mm 193 W/m2
12:14 64.1 °F /  17.8 °C 59.3 °F /  15.2 °C 29.84in /  1010.4hPa WSW 8.4mph /  13.5km/h 14mph /  22.5km/h 84% 0.00in /  0mm 88 W/m2
12:19 64 °F /  17.8 °C 59.2 °F /  15.1 °C 29.83in /  1010hPa WSW 5.4mph /  8.7km/h 12mph /  19.3km/h 84% 0.00in /  0mm 116 W/m2
12:24 64 °F /  17.8 °C 59.2 °F /  15.1 °C 29.84in /  1010.4hPa WSW 6mph /  9.7km/h 12mph /  19.3km/h 84% 0.00in /  0mm 107 W/m2
12:29 64 °F /  17.8 °C 59.2 °F /  15.1 °C 29.84in /  1010.4hPa SW 10.2mph /  16.4km/h 17mph /  27.4km/h 84% 0.00in /  0mm 132 W/m2
12:34 64 °F /  17.8 °C 59.2 °F /  15.1 °C 29.84in /  1010.4hPa SW 8.7mph /  14km/h 15mph /  24.1km/h 84% 0.00in /  0mm 130 W/m2
12:39 64.2 °F /  17.9 °C 59.4 °F /  15.2 °C 29.84in /  1010.4hPa West 5.8mph /  9.3km/h 15mph /  24.1km/h 84% 0.00in /  0mm 120 W/m2
12:44 64.2 °F /  17.9 °C 59.4 °F /  15.2 °C 29.84in /  1010.4hPa WSW 7.2mph /  11.6km/h 14mph /  22.5km/h 84% 0.00in /  0mm 105 W/m2
12:49 64.2 °F /  17.9 °C 59.4 °F /  15.2 °C 29.84in /  1010.4hPa WSW 8.6mph /  13.8km/h 16mph /  25.7km/h 84% 0.00in /  0mm 88 W/m2
12:54 64.2 °F /  17.9 °C 59.4 °F /  15.2 °C 29.84in /  1010.4hPa WSW 6.6mph /  10.6km/h 11mph /  17.7km/h 84% 0.00in /  0mm 120 W/m2
12:59 64.4 °F /  18 °C 59.6 °F /  15.3 °C 29.84in /  1010.4hPa WSW 5.8mph /  9.3km/h 11mph /  17.7km/h 84.4% 0.00in /  0mm 162 W/m2
13:04 64.5 °F /  18.1 °C 59.8 °F /  15.4 °C 29.84in /  1010.4hPa WSW 8.8mph /  14.2km/h 15mph /  24.1km/h 85% 0.00in /  0mm 218 W/m2
13:09 64.7 °F /  18.2 °C 59.8 °F /  15.4 °C 29.84in /  1010.4hPa West 6.6mph /  10.6km/h 15mph /  24.1km/h 84% 0.00in /  0mm 204 W/m2
13:14 64.8 °F /  18.2 °C 59.9 °F /  15.5 °C 29.84in /  1010.4hPa West 7.7mph /  12.4km/h 16mph /  25.7km/h 84% 0.00in /  0mm 278 W/m2
13:19 64.8 °F /  18.2 °C 60 °F /  15.6 °C 29.84in /  1010.4hPa West 7mph /  11.3km/h 17mph /  27.4km/h 84.6% 0.00in /  0mm 264 W/m2
13:24 64.4 °F /  18 °C 60 °F /  15.6 °C 29.84in /  1010.4hPa WSW 9.2mph /  14.8km/h 14mph /  22.5km/h 85.8% 0.00in /  0mm 221 W/m2
13:29 64.2 °F /  17.9 °C 59.9 °F /  15.5 °C 29.84in /  1010.4hPa West 8mph /  12.9km/h 18mph /  29km/h 86% 0.00in /  0mm 151 W/m2
13:34 64.2 °F /  17.9 °C 59.9 °F /  15.5 °C 29.84in /  1010.4hPa WSW 10.6mph /  17.1km/h 18mph /  29km/h 86% 0.00in /  0mm 125 W/m2
13:39 64.2 °F /  17.9 °C 59.9 °F /  15.5 °C 29.84in /  1010.4hPa West 7.5mph /  12.1km/h 16mph /  25.7km/h 86% 0.00in /  0mm 141 W/m2
13:44 64.1 °F /  17.8 °C 59.8 °F /  15.4 °C 29.84in /  1010.4hPa West 5.9mph /  9.5km/h 13mph /  20.9km/h 86% 0.00in /  0mm 130 W/m2
13:49 64 °F /  17.8 °C 60.1 °F /  15.6 °C 29.84in /  1010.4hPa West 5.6mph /  9km/h 12mph /  19.3km/h 87% 0.00in /  0mm 141 W/m2
13:54 64 °F /  17.8 °C 60 °F /  15.6 °C 29.84in /  1010.4hPa West 6.6mph /  10.6km/h 10mph /  16.1km/h 87% 0.01in /  0.25mm 90 W/m2
13:59 63.8 °F /  17.7 °C 59.9 °F /  15.5 °C 29.84in /  1010.4hPa West 4.5mph /  7.2km/h 10mph /  16.1km/h 87.3% 0.01in /  0.25mm 113 W/m2
14:04 63.7 °F /  17.6 °C 60.1 °F /  15.6 °C 29.83in /  1010hPa WSW 5.2mph /  8.4km/h 10mph /  16.1km/h 88% 0.01in /  0.25mm 114 W/m2
14:09 63.9 °F /  17.7 °C 60.3 °F /  15.7 °C 29.83in /  1010hPa WSW 4.5mph /  7.2km/h 10mph /  16.1km/h 88% 0.01in /  0.25mm 105 W/m2
14:14 63.9 °F /  17.7 °C 60.3 °F /  15.7 °C 29.83in /  1010hPa WSW 8mph /  12.9km/h 12mph /  19.3km/h 88% 0.01in /  0.25mm 144 W/m2
14:19 63.9 °F /  17.7 °C 60.3 °F /  15.7 °C 29.84in /  1010.4hPa WSW 7mph /  11.3km/h 13mph /  20.9km/h 88% 0.01in /  0.25mm 153 W/m2
14:24 63.9 °F /  17.7 °C 60.3 °F /  15.7 °C 29.83in /  1010hPa WSW 6.8mph /  10.9km/h 13mph /  20.9km/h 88% 0.01in /  0.25mm 125 W/m2
14:29 64 °F /  17.8 °C 60.4 °F /  15.8 °C 29.83in /  1010hPa WSW 5.6mph /  9km/h 10mph /  16.1km/h 88% 0.01in /  0.25mm 114 W/m2
14:34 64 °F /  17.8 °C 60.4 °F /  15.8 °C 29.83in /  1010hPa West 6.4mph /  10.3km/h 12mph /  19.3km/h 88% 0.01in /  0.25mm 107 W/m2
14:39 64 °F /  17.8 °C 60.4 °F /  15.8 °C 29.83in /  1010hPa West 5.7mph /  9.2km/h 13mph /  20.9km/h 88% 0.01in /  0.25mm 107 W/m2
14:44 64 °F /  17.8 °C 60.4 °F /  15.8 °C 29.83in /  1010hPa West 3.5mph /  5.6km/h 7mph /  11.3km/h 88% 0.01in /  0.25mm 107 W/m2
14:49 63.6 °F /  17.6 °C 60.4 °F /  15.8 °C 29.83in /  1010hPa West 3.6mph /  5.8km/h 8mph /  12.9km/h 89% 0.02in /  0.51mm 104 W/m2
14:53 63.3 °F /  17.4 °C 60.3 °F /  15.7 °C 29.83in /  1010hPa West 2.7mph /  4.3km/h 8mph /  12.9km/h 89.8% 0.02in /  0.51mm 153 W/m2
14:59 63.3 °F /  17.4 °C 60.3 °F /  15.7 °C 29.83in /  1010hPa West 4mph /  6.4km/h 8mph /  12.9km/h 90% 0.01in /  0.25mm 160 W/m2
15:04 63.1 °F /  17.3 °C 60.1 °F /  15.6 °C 29.83in /  1010hPa WNW 3.7mph /  6km/h 6mph /  9.7km/h 90% 0.01in /  0.25mm 199 W/m2
15:09 63.3 °F /  17.4 °C 60.6 °F /  15.9 °C 29.83in /  1010hPa WNW 3.7mph /  6km/h 7mph /  11.3km/h 91% 0.01in /  0.25mm 176 W/m2
15:14 63.3 °F /  17.4 °C 60.6 °F /  15.9 °C 29.83in /  1010hPa WNW 5.7mph /  9.2km/h 10mph /  16.1km/h 91% 0.01in /  0.25mm 151 W/m2
15:24 63.1 °F /  17.3 °C 60.4 °F /  15.8 °C 29.83in /  1010hPa WNW 7.3mph /  11.7km/h 10mph /  16.1km/h 91% 0.01in /  0.25mm 149 W/m2
15:29 63 °F /  17.2 °C 60.5 °F /  15.8 °C 29.83in /  1010hPa NW 6.8mph /  10.9km/h 12mph /  19.3km/h 91.8% 0.01in /  0.25mm 155 W/m2
15:34 63 °F /  17.2 °C 60.5 °F /  15.8 °C 29.83in /  1010hPa WNW 5.4mph /  8.7km/h 12mph /  19.3km/h 91.6% 0.01in /  0.25mm 197 W/m2
15:39 62.9 °F /  17.2 °C 60.5 °F /  15.8 °C 29.83in /  1010hPa WNW 7mph /  11.3km/h 13mph /  20.9km/h 92% 0.01in /  0.25mm 149 W/m2
15:44 63 °F /  17.2 °C 60.6 °F /  15.9 °C 29.83in /  1010hPa WNW 5.4mph /  8.7km/h 13mph /  20.9km/h 92% 0.01in /  0.25mm 197 W/m2
15:49 63 °F /  17.2 °C 60.7 °F /  15.9 °C 29.83in /  1010hPa WNW 6.6mph /  10.6km/h 12mph /  19.3km/h 92% 0.01in /  0.25mm 202 W/m2
15:54 63.2 °F /  17.3 °C 60.9 °F /  16.1 °C 29.83in /  1010hPa WNW 5.4mph /  8.7km/h 11mph /  17.7km/h 92% 0.00in /  0mm 176 W/m2
15:59 63.4 °F /  17.4 °C 60.9 °F /  16.1 °C 29.83in /  1010hPa WNW 6.2mph /  10km/h 14mph /  22.5km/h 91.4% 0.00in /  0mm 149 W/m2
16:04 63.4 °F /  17.4 °C 60.7 °F /  15.9 °C 29.84in /  1010.4hPa NW 7.4mph /  11.9km/h 12mph /  19.3km/h 91% 0.00in /  0mm 116 W/m2
16:09 63.2 °F /  17.3 °C 60.5 °F /  15.8 °C 29.84in /  1010.4hPa WNW 5.9mph /  9.5km/h 12mph /  19.3km/h 91% 0.00in /  0mm 102 W/m2
16:14 63.1 °F /  17.3 °C 60.4 °F /  15.8 °C 29.84in /  1010.4hPa WNW 6mph /  9.7km/h 10mph /  16.1km/h 91% 0.00in /  0mm 93 W/m2
16:19 63.1 °F /  17.3 °C 60.4 °F /  15.8 °C 29.84in /  1010.4hPa NW 5.8mph /  9.3km/h 11mph /  17.7km/h 91% 0.00in /  0mm 84 W/m2
16:24 63 °F /  17.2 °C 60.3 °F /  15.7 °C 29.84in /  1010.4hPa WNW 4.5mph /  7.2km/h 11mph /  17.7km/h 91% 0.00in /  0mm 97 W/m2
16:29 62.9 °F /  17.2 °C 60.2 °F /  15.7 °C 29.84in /  1010.4hPa West 6.3mph /  10.1km/h 11mph /  17.7km/h 91% 0.00in /  0mm 114 W/m2
16:34 62.7 °F /  17.1 °C 60 °F /  15.6 °C 29.84in /  1010.4hPa West 7mph /  11.3km/h 12mph /  19.3km/h 91% 0.00in /  0mm 171 W/m2
16:39 62.5 °F /  16.9 °C 59.8 °F /  15.4 °C 29.84in /  1010.4hPa WNW 6.8mph /  10.9km/h 16mph /  25.7km/h 91% 0.00in /  0mm 186 W/m2
16:44 62.5 °F /  16.9 °C 59.8 °F /  15.4 °C 29.84in /  1010.4hPa West 8.6mph /  13.8km/h 15mph /  24.1km/h 91% 0.00in /  0mm 186 W/m2
16:49 62.6 °F /  17 °C 59.9 °F /  15.5 °C 29.84in /  1010.4hPa West 6mph /  9.7km/h 13mph /  20.9km/h 91% 0.00in /  0mm 230 W/m2
16:54 62.6 °F /  17 °C 59.9 °F /  15.5 °C 29.84in /  1010.4hPa West 7.5mph /  12.1km/h 14mph /  22.5km/h 91% 0.00in /  0mm 156 W/m2
16:59 62.6 °F /  17 °C 59.9 °F /  15.5 °C 29.84in /  1010.4hPa WNW 7.8mph /  12.6km/h 13mph /  20.9km/h 91% 0.00in /  0mm 142 W/m2
17:04 62.5 °F /  16.9 °C 59.8 °F /  15.4 °C 29.84in /  1010.4hPa WNW 6.3mph /  10.1km/h 15mph /  24.1km/h 91% 0.00in /  0mm 132 W/m2
17:09 62.5 °F /  16.9 °C 59.8 °F /  15.4 °C 29.84in /  1010.4hPa WNW 6.6mph /  10.6km/h 15mph /  24.1km/h 91% 0.00in /  0mm 116 W/m2
17:14 62.6 °F /  17 °C 59.9 °F /  15.5 °C 29.84in /  1010.4hPa WNW 5.6mph /  9km/h 11mph /  17.7km/h 91% 0.00in /  0mm 113 W/m2
17:19 62.6 °F /  17 °C 59.6 °F /  15.3 °C 29.84in /  1010.4hPa WNW 6.7mph /  10.8km/h 15mph /  24.1km/h 90.2% 0.00in /  0mm 102 W/m2
17:24 62.8 °F /  17.1 °C 59.7 °F /  15.4 °C 29.84in /  1010.4hPa West 6.6mph /  10.6km/h 16mph /  25.7km/h 90% 0.00in /  0mm 120 W/m2
17:29 62.6 °F /  17 °C 59.5 °F /  15.3 °C 29.85in /  1010.7hPa West 9mph /  14.5km/h 19mph /  30.6km/h 90% 0.00in /  0mm 155 W/m2
17:34 62.4 °F /  16.9 °C 59.5 °F /  15.3 °C 29.84in /  1010.4hPa WNW 6.8mph /  10.9km/h 15mph /  24.1km/h 90.2% 0.00in /  0mm 163 W/m2
17:39 62.2 °F /  16.8 °C 59.5 °F /  15.3 °C 29.84in /  1010.4hPa West 8.2mph /  13.2km/h 14mph /  22.5km/h 91% 0.00in /  0mm 142 W/m2
17:44 62.2 °F /  16.8 °C 59.5 °F /  15.3 °C 29.84in /  1010.4hPa West 9.5mph /  15.3km/h 13mph /  20.9km/h 91% 0.00in /  0mm 139 W/m2
17:49 62.1 °F /  16.7 °C 59.4 °F /  15.2 °C 29.84in /  1010.4hPa WNW 7.6mph /  12.2km/h 14mph /  22.5km/h 91% 0.00in /  0mm 141 W/m2
17:54 61.9 °F /  16.6 °C 59.4 °F /  15.2 °C 29.85in /  1010.7hPa West 6.2mph /  10km/h 14mph /  22.5km/h 91.6% 0.00in /  0mm 146 W/m2
17:58 61.9 °F /  16.6 °C 59.5 °F /  15.3 °C 29.84in /  1010.4hPa WNW 8mph /  12.9km/h 16mph /  25.7km/h 92% 0.00in /  0mm 149 W/m2
18:04 61.9 °F /  16.6 °C 59.5 °F /  15.3 °C 29.84in /  1010.4hPa WNW 7.4mph /  11.9km/h 15mph /  24.1km/h 92% 0.00in /  0mm 188 W/m2
18:09 62 °F /  16.7 °C 59.6 °F /  15.3 °C 29.84in /  1010.4hPa WNW 8mph /  12.9km/h 11mph /  17.7km/h 92% 0.00in /  0mm 216 W/m2
18:14 62.1 °F /  16.7 °C 59.7 °F /  15.4 °C 29.84in /  1010.4hPa West 5.6mph /  9km/h 10mph /  16.1km/h 92% 0.00in /  0mm 142 W/m2
18:19 62.1 °F /  16.7 °C 59.8 °F /  15.4 °C 29.84in /  1010.4hPa WNW 4.2mph /  6.8km/h 10mph /  16.1km/h 92.2% 0.00in /  0mm 98 W/m2
18:24 61.9 °F /  16.6 °C 59.9 °F /  15.5 °C 29.84in /  1010.4hPa West 4.3mph /  6.9km/h 12mph /  19.3km/h 93% 0.00in /  0mm 81 W/m2
18:29 61.9 °F /  16.6 °C 59.9 °F /  15.5 °C 29.84in /  1010.4hPa WNW 6.4mph /  10.3km/h 11mph /  17.7km/h 93% 0.00in /  0mm 63 W/m2
18:33 61.9 °F /  16.6 °C 59.9 °F /  15.5 °C 29.84in /  1010.4hPa WNW 7.2mph /  11.6km/h 12mph /  19.3km/h 93% 0.00in /  0mm 72 W/m2
18:39 61.7 °F /  16.5 °C 59.7 °F /  15.4 °C 29.84in /  1010.4hPa WNW 6.5mph /  10.5km/h 12mph /  19.3km/h 93% 0.00in /  0mm 95 W/m2
18:44 61.6 °F /  16.4 °C 59.6 °F /  15.3 °C 29.84in /  1010.4hPa WNW 7.8mph /  12.6km/h 12mph /  19.3km/h 93% 0.00in /  0mm 65 W/m2
18:49 61.8 °F /  16.6 °C 59.8 °F /  15.4 °C 29.84in /  1010.4hPa WNW 5.9mph /  9.5km/h 11mph /  17.7km/h 93% 0.00in /  0mm 74 W/m2
18:54 61.8 °F /  16.6 °C 59.8 °F /  15.4 °C 29.84in /  1010.4hPa West 5.9mph /  9.5km/h 11mph /  17.7km/h 93% 0.00in /  0mm 65 W/m2
18:59 61.9 °F /  16.6 °C 59.9 °F /  15.5 °C 29.84in /  1010.4hPa West 4.1mph /  6.6km/h 11mph /  17.7km/h 93% 0.00in /  0mm 62 W/m2
19:04 61.9 °F /  16.6 °C 59.9 °F /  15.5 °C 29.84in /  1010.4hPa WNW 4.4mph /  7.1km/h 7mph /  11.3km/h 93% 0.00in /  0mm 54 W/m2
19:08 61.7 °F /  16.5 °C 59.7 °F /  15.4 °C 29.84in /  1010.4hPa WNW 5.7mph /  9.2km/h 9mph /  14.5km/h 93% 0.00in /  0mm 46 W/m2
19:14 61.9 °F /  16.6 °C 59.9 °F /  15.5 °C 29.84in /  1010.4hPa WNW 3.6mph /  5.8km/h 8mph /  12.9km/h 93% 0.00in /  0mm 46 W/m2
19:19 61.9 °F /  16.6 °C 59.9 °F /  15.5 °C 29.84in /  1010.4hPa West 4.1mph /  6.6km/h 10mph /  16.1km/h 93% 0.00in /  0mm 42 W/m2
19:24 62 °F /  16.7 °C 60 °F /  15.6 °C 29.84in /  1010.4hPa WSW 5.2mph /  8.4km/h 9mph /  14.5km/h 93% 0.00in /  0mm 46 W/m2
19:29 62.1 °F /  16.7 °C 59.8 °F /  15.4 °C 29.84in /  1010.4hPa West 4.9mph /  7.9km/h 11mph /  17.7km/h 92.2% 0.00in /  0mm 37 W/m2
19:34 62.1 °F /  16.7 °C 59.7 °F /  15.4 °C 29.84in /  1010.4hPa WNW 4.5mph /  7.2km/h 9mph /  14.5km/h 92% 0.00in /  0mm 33 W/m2
19:39 62.1 °F /  16.7 °C 59.7 °F /  15.4 °C 29.84in /  1010.4hPa WNW 3.7mph /  6km/h 10mph /  16.1km/h 92% 0.00in /  0mm 33 W/m2
19:44 62.2 °F /  16.8 °C 59.9 °F /  15.5 °C 29.83in /  1010hPa WNW 6mph /  9.7km/h 9mph /  14.5km/h 92% 0.00in /  0mm 30 W/m2
19:49 62.2 °F /  16.8 °C 59.9 °F /  15.5 °C 29.83in /  1010hPa West 2.9mph /  4.7km/h 8mph /  12.9km/h 92% 0.00in /  0mm 28 W/m2
19:54 62.2 °F /  16.8 °C 59.9 °F /  15.5 °C 29.83in /  1010hPa West 2.5mph /  4km/h 7mph /  11.3km/h 92% 0.00in /  0mm 25 W/m2
19:59 62.2 °F /  16.8 °C 59.5 °F /  15.3 °C 29.83in /  1010hPa WNW 4.8mph /  7.7km/h 7mph /  11.3km/h 91% 0.00in /  0mm 25 W/m2
20:04 62.3 °F /  16.8 °C 59.6 °F /  15.3 °C 29.83in /  1010hPa West 4.4mph /  7.1km/h 6mph /  9.7km/h 91% 0.00in /  0mm 23 W/m2
20:09 62.4 °F /  16.9 °C 59.7 °F /  15.4 °C 29.84in /  1010.4hPa West 4.5mph /  7.2km/h 10mph /  16.1km/h 91% 0.00in /  0mm 19 W/m2
20:14 62.4 °F /  16.9 °C 59.7 °F /  15.4 °C 29.84in /  1010.4hPa West 5.3mph /  8.5km/h 8mph /  12.9km/h 91% 0.00in /  0mm 19 W/m2
20:19 62.4 °F /  16.9 °C 59.4 °F /  15.2 °C 29.83in /  1010hPa West 4.4mph /  7.1km/h 9mph /  14.5km/h 90% 0.00in /  0mm 16 W/m2
20:24 62.4 °F /  16.9 °C 59.4 °F /  15.2 °C 29.84in /  1010.4hPa West 6.4mph /  10.3km/h 12mph /  19.3km/h 90% 0.00in /  0mm 14 W/m2
20:29 62.4 °F /  16.9 °C 59.4 °F /  15.2 °C 29.84in /  1010.4hPa West 3.7mph /  6km/h 9mph /  14.5km/h 90% 0.00in /  0mm 16 W/m2
20:34 62.4 °F /  16.9 °C 59.4 °F /  15.2 °C 29.83in /  1010hPa West 6.5mph /  10.5km/h 14mph /  22.5km/h 89.8% 0.00in /  0mm 16 W/m2
20:39 62.5 °F /  16.9 °C 59.3 °F /  15.2 °C 29.83in /  1010hPa West 6.2mph /  10km/h 17mph /  27.4km/h 89% 0.01in /  0.25mm 12 W/m2
20:44 62.6 °F /  17 °C 59.4 °F /  15.2 °C 29.83in /  1010hPa West 7.6mph /  12.2km/h 13mph /  20.9km/h 89% 0.01in /  0.25mm 12 W/m2
20:49 62.6 °F /  17 °C 59.3 °F /  15.2 °C 29.84in /  1010.4hPa West 5.5mph /  8.9km/h 11mph /  17.7km/h 89% 0.01in /  0.25mm 11 W/m2
20:54 62.5 °F /  16.9 °C 59.3 °F /  15.2 °C 29.84in /  1010.4hPa West 4.5mph /  7.2km/h 7mph /  11.3km/h 89% 0.01in /  0.25mm 7 W/m2
20:59 62.4 °F /  16.9 °C 59.2 °F /  15.1 °C 29.83in /  1010hPa West 3.4mph /  5.5km/h 9mph /  14.5km/h 89% 0.01in /  0.25mm 5 W/m2
21:04 62.4 °F /  16.9 °C 59.2 °F /  15.1 °C 29.84in /  1010.4hPa West 5.2mph /  8.4km/h 9mph /  14.5km/h 89% 0.01in /  0.25mm 0 W/m2
21:09 62.5 °F /  16.9 °C 59.1 °F /  15.1 °C 29.84in /  1010.4hPa West 4.2mph /  6.8km/h 10mph /  16.1km/h 88.5% 0.01in /  0.25mm 0 W/m2
21:14 62.5 °F /  16.9 °C 58.9 °F /  14.9 °C 29.84in /  1010.4hPa WSW 5.4mph /  8.7km/h 12mph /  19.3km/h 88% 0.01in /  0.25mm 0 W/m2
21:19 62.4 °F /  16.9 °C 58.8 °F /  14.9 °C 29.84in /  1010.4hPa West 5.2mph /  8.4km/h 12mph /  19.3km/h 88% 0.01in /  0.25mm 0 W/m2
21:24 62.4 °F /  16.9 °C 58.8 °F /  14.9 °C 29.84in /  1010.4hPa WSW 10.8mph /  17.4km/h 17mph /  27.4km/h 88% 0.01in /  0.25mm 0 W/m2
21:29 62.4 °F /  16.9 °C 58.7 °F /  14.8 °C 29.84in /  1010.4hPa West 4.7mph /  7.6km/h 13mph /  20.9km/h 87.8% 0.01in /  0.25mm 0 W/m2
21:34 62.4 °F /  16.9 °C 58.5 °F /  14.7 °C 29.84in /  1010.4hPa West 7.3mph /  11.7km/h 16mph /  25.7km/h 87% 0.01in /  0.25mm 0 W/m2
21:39 62.4 °F /  16.9 °C 58.5 °F /  14.7 °C 29.84in /  1010.4hPa West 4.8mph /  7.7km/h 14mph /  22.5km/h 87% 0.01in /  0.25mm 0 W/m2
21:44 62.4 °F /  16.9 °C 58.5 °F /  14.7 °C 29.84in /  1010.4hPa West 3.1mph /  5km/h 8mph /  12.9km/h 87% 0.00in /  0mm 0 W/m2
21:49 62.4 °F /  16.9 °C 58.5 °F /  14.7 °C 29.84in /  1010.4hPa WSW 8.8mph /  14.2km/h 16mph /  25.7km/h 87% 0.00in /  0mm 0 W/m2
21:54 62.4 °F /  16.9 °C 58.5 °F /  14.7 °C 29.85in /  1010.7hPa WSW 4.9mph /  7.9km/h 14mph /  22.5km/h 87% 0.00in /  0mm 0 W/m2
21:59 62.2 °F /  16.8 °C 58.3 °F /  14.6 °C 29.85in /  1010.7hPa WSW 9mph /  14.5km/h 14mph /  22.5km/h 87% 0.00in /  0mm 0 W/m2
22:04 62.1 °F /  16.7 °C 58.1 °F /  14.5 °C 29.84in /  1010.4hPa WSW 7.8mph /  12.6km/h 14mph /  22.5km/h 87% 0.00in /  0mm 0 W/m2
22:09 62.1 °F /  16.7 °C 58.1 °F /  14.5 °C 29.84in /  1010.4hPa SW 8.4mph /  13.5km/h 15mph /  24.1km/h 87% 0.00in /  0mm 0 W/m2
22:14 61.9 °F /  16.6 °C 57.9 °F /  14.4 °C 29.84in /  1010.4hPa SW 7.4mph /  11.9km/h 15mph /  24.1km/h 87% 0.00in /  0mm 0 W/m2
22:19 61.9 °F /  16.6 °C 57.9 °F /  14.4 °C 29.84in /  1010.4hPa WSW 9.8mph /  15.8km/h 15mph /  24.1km/h 87% 0.00in /  0mm 0 W/m2
22:24 61.7 °F /  16.5 °C 57.7 °F /  14.3 °C 29.84in /  1010.4hPa WSW 7mph /  11.3km/h 12mph /  19.3km/h 87% 0.00in /  0mm 0 W/m2
22:29 61.5 °F /  16.4 °C 57.6 °F /  14.2 °C 29.84in /  1010.4hPa WSW 4.9mph /  7.9km/h 11mph /  17.7km/h 87% 0.00in /  0mm 0 W/m2
22:34 61.4 °F /  16.3 °C 57.5 °F /  14.2 °C 29.84in /  1010.4hPa WSW 5.9mph /  9.5km/h 12mph /  19.3km/h 87% 0.00in /  0mm 0 W/m2
22:39 61.3 °F /  16.3 °C 57.4 °F /  14.1 °C 29.84in /  1010.4hPa WSW 6.1mph /  9.8km/h 14mph /  22.5km/h 87% 0.00in /  0mm 0 W/m2
22:44 61.3 °F /  16.3 °C 57.4 °F /  14.1 °C 29.83in /  1010hPa WSW 5.4mph /  8.7km/h 16mph /  25.7km/h 87% 0.00in /  0mm 0 W/m2
22:49 61.3 °F /  16.3 °C 57.4 °F /  14.1 °C 29.83in /  1010hPa SW 5.5mph /  8.9km/h 11mph /  17.7km/h 87% 0.00in /  0mm 0 W/m2
22:54 61.3 °F /  16.3 °C 57.4 °F /  14.1 °C 29.83in /  1010hPa SW 3.8mph /  6.1km/h 9mph /  14.5km/h 87% 0.00in /  0mm 0 W/m2
22:59 61.3 °F /  16.3 °C 57.4 °F /  14.1 °C 29.83in /  1010hPa WSW 8.4mph /  13.5km/h 17mph /  27.4km/h 87% 0.00in /  0mm 0 W/m2
23:04 61.3 °F /  16.3 °C 57.4 °F /  14.1 °C 29.83in /  1010hPa WSW 6.4mph /  10.3km/h 12mph /  19.3km/h 87% 0.00in /  0mm 0 W/m2
23:09 61.3 °F /  16.3 °C 57.6 °F /  14.2 °C 29.83in /  1010hPa WSW 5.2mph /  8.4km/h 10mph /  16.1km/h 87.6% 0.00in /  0mm 0 W/m2
23:14 61.3 °F /  16.3 °C 57.7 °F /  14.3 °C 29.83in /  1010hPa WSW 6.4mph /  10.3km/h 15mph /  24.1km/h 88% 0.00in /  0mm 0 W/m2
23:19 61.3 °F /  16.3 °C 57.7 °F /  14.3 °C 29.83in /  1010hPa WSW 6.9mph /  11.1km/h 13mph /  20.9km/h 88% 0.00in /  0mm 0 W/m2
23:24 61.3 °F /  16.3 °C 57.7 °F /  14.3 °C 29.83in /  1010hPa WSW 7.6mph /  12.2km/h 18mph /  29km/h 88% 0.00in /  0mm 0 W/m2
23:29 61.3 °F /  16.3 °C 57.7 °F /  14.3 °C 29.83in /  1010hPa SW 8mph /  12.9km/h 18mph /  29km/h 88% 0.00in /  0mm 0 W/m2
23:34 61.3 °F /  16.3 °C 57.7 °F /  14.3 °C 29.83in /  1010hPa WSW 8.4mph /  13.5km/h 15mph /  24.1km/h 88% 0.00in /  0mm 0 W/m2
23:39 61.3 °F /  16.3 °C 57.7 °F /  14.3 °C 29.82in /  1009.7hPa WSW 6.6mph /  10.6km/h 13mph /  20.9km/h 88% 0.00in /  0mm 0 W/m2
23:44 61.3 °F /  16.3 °C 57.7 °F /  14.3 °C 29.82in /  1009.7hPa West 5.9mph /  9.5km/h 13mph /  20.9km/h 88% 0.00in /  0mm 0 W/m2
23:49 61.3 °F /  16.3 °C 57.7 °F /  14.3 °C 29.82in /  1009.7hPa SW 5.6mph /  9km/h 11mph /  17.7km/h 88% 0.00in /  0mm 0 W/m2
23:54 61.3 °F /  16.3 °C 57.7 °F /  14.3 °C 29.82in /  1009.7hPa SW 8mph /  12.9km/h 14mph /  22.5km/h 88% 0.00in /  0mm 0 W/m2
23:59 61.5 °F /  16.4 °C 57.9 °F /  14.4 °C 29.82in /  1009.7hPa WSW 8.2mph /  13.2km/h 16mph /  25.7km/h 88% 0.00in /  0mm 0 W/m2
Bath Spa Weather
Compliments of Weather Underground - 2 mb